Time;durP1;ratioP1;P1;durP2;ratioP2;P2;SDS_P1;SDS_P2;PMS_P1;PMS_P2;Temp;Humidity;BMP_temperature;BMP_pressure;BME280_temperature;BME280_humidity;BME280_pressure;Samples;Min_cycle;Max_cycle;Signal;HPM_P1;HPM_P2
2022/06/07 00:01:35;;;;;;;15.02;13.43;;;13.60;99.90;;;;;;5025810;28;20117;-71
2022/06/07 00:04:01;;;;;;;17.08;14.95;;;13.60;99.90;;;;;;5021492;28;20526;-71
2022/06/07 00:06:28;;;;;;;15.40;13.80;;;13.70;99.90;;;;;;5029949;28;20060;-71
2022/06/07 00:08:54;;;;;;;17.67;15.77;;;13.60;99.90;;;;;;5029615;28;20108;-71
2022/06/07 00:11:20;;;;;;;18.30;15.25;;;13.70;99.90;;;;;;5029718;28;20176;-71
2022/06/07 00:13:47;;;;;;;16.13;14.48;;;13.60;99.90;;;;;;5029571;28;20036;-71
2022/06/07 00:16:14;;;;;;;20.52;18.33;;;13.60;99.90;;;;;;5021367;28;20030;-71
2022/06/07 00:18:40;;;;;;;20.48;17.85;;;;;;;;;;5021873;28;20057;-71
2022/06/07 00:21:06;;;;;;;18.02;16.13;;;13.50;99.90;;;;;;5026492;28;20048;-71
2022/06/07 00:23:32;;;;;;;19.92;17.83;;;;;;;;;;5029499;28;20411;-71
2022/06/07 00:25:58;;;;;;;22.02;18.38;;;13.70;99.90;;;;;;5022637;28;20041;-71
2022/06/07 00:28:25;;;;;;;20.67;18.48;;;13.70;99.90;;;;;;5022800;28;20029;-71
2022/06/07 00:30:52;;;;;;;19.80;17.63;;;13.50;99.90;;;;;;5026304;28;20045;-71
2022/06/07 00:33:20;;;;;;;20.45;18.33;;;13.70;99.90;;;;;;5028853;28;20025;-71
2022/06/07 00:35:47;;;;;;;21.75;19.50;;;13.70;99.90;;;;;;5023358;28;20102;-71
2022/06/07 00:38:13;;;;;;;23.00;19.55;;;13.70;99.90;;;;;;5016032;28;20046;-71
2022/06/07 00:40:40;;;;;;;23.35;21.05;;;13.60;99.90;;;;;;5020688;28;20057;-71
2022/06/07 00:43:05;;;;;;;20.80;15.88;;;13.50;99.90;;;;;;5027887;28;20018;-71
2022/06/07 00:45:32;;;;;;;23.92;19.67;;;13.60;99.90;;;;;;5028962;28;20026;-71
2022/06/07 00:47:57;;;;;;;24.40;21.05;;;13.70;99.90;;;;;;5026827;28;20043;-71
2022/06/07 00:50:49;;;;;;;25.90;21.55;;;13.80;99.90;;;;;;5024861;28;20017;-71
2022/06/07 00:53:23;;;;;;;20.95;18.27;;;13.70;99.90;;;;;;5024860;28;20040;-71
2022/06/07 00:55:49;;;;;;;24.05;21.02;;;;;;;;;;5026739;28;20032;-71
2022/06/07 00:58:14;;;;;;;28.90;24.08;;;13.60;99.90;;;;;;5026933;28;20037;-71
2022/06/07 01:00:40;;;;;;;24.25;20.23;;;13.70;99.90;;;;;;5027935;28;20040;-71
2022/06/07 01:03:05;;;;;;;30.20;23.80;;;13.80;99.90;;;;;;5024620;28;20030;-71
2022/06/07 01:05:31;;;;;;;28.33;24.17;;;13.80;99.90;;;;;;5028871;28;20211;-71
2022/06/07 01:10:57;;;;;;;24.60;19.83;;;13.90;99.90;;;;;;5006183;28;20382;-71
2022/06/07 01:13:27;;;;;;;34.28;26.73;;;13.70;99.90;;;;;;5006445;28;20037;-71
2022/06/07 01:15:58;;;;;;;30.27;25.05;;;13.70;99.90;;;;;;5006385;28;20034;-71
2022/06/07 01:18:24;;;;;;;28.92;23.65;;;13.50;99.90;;;;;;5002477;28;20061;-71
2022/06/07 01:21:15;;;;;;;31.88;24.67;;;13.80;99.90;;;;;;5006665;28;20033;-71
2022/06/07 01:23:42;;;;;;;30.50;24.00;;;13.90;99.90;;;;;;4999778;28;20057;-71
2022/06/07 01:26:09;;;;;;;32.70;24.38;;;13.90;99.90;;;;;;5002681;28;20030;-71
2022/06/07 01:28:35;;;;;;;25.27;21.08;;;13.80;99.90;;;;;;5006295;28;20092;-71
2022/06/07 01:31:01;;;;;;;33.78;23.85;;;13.90;99.90;;;;;;5005562;28;20026;-71
2022/06/07 01:33:26;;;;;;;36.67;24.15;;;13.80;99.90;;;;;;5005272;28;20104;-71
2022/06/07 01:36:05;;;;;;;30.85;24.88;;;13.80;99.90;;;;;;5002794;28;20034;-71
2022/06/07 01:38:32;;;;;;;33.15;26.13;;;13.80;99.90;;;;;;5006683;28;20062;-71
2022/06/07 01:43:42;;;;;;;31.85;25.55;;;13.80;99.90;;;;;;5005110;28;20469;-71
2022/06/07 01:46:08;;;;;;;36.88;26.70;;;13.90;99.90;;;;;;5021704;28;20022;-70
2022/06/07 01:48:33;;;;;;;36.35;28.55;;;13.40;99.90;;;;;;5025303;28;20406;-71
2022/06/07 01:51:04;;;;;;;33.30;27.27;;;13.80;99.90;;;;;;5027647;28;20057;-71
2022/06/07 01:53:30;;;;;;;41.45;29.35;;;14.00;99.90;;;;;;5025923;28;20033;-71
2022/06/07 01:56:11;;;;;;;34.15;28.45;;;13.90;99.90;;;;;;5026085;28;20029;-71
2022/06/07 01:58:38;;;;;;;35.58;30.73;;;14.00;99.90;;;;;;5027763;28;20048;-71
2022/06/07 02:01:04;;;;;;;36.08;28.73;;;14.10;99.90;;;;;;5026371;28;20052;-71
2022/06/07 02:03:30;;;;;;;38.65;28.30;;;13.80;99.90;;;;;;5027108;28;20360;-71
2022/06/07 02:06:03;;;;;;;39.53;29.98;;;13.70;99.90;;;;;;5021940;28;20117;-71
2022/06/07 02:08:29;;;;;;;39.28;29.60;;;14.00;99.90;;;;;;5024381;28;20112;-71
2022/06/07 02:10:55;;;;;;;36.83;28.42;;;13.70;99.90;;;;;;5027491;28;20040;-71
2022/06/07 02:13:22;;;;;;;40.90;31.58;;;13.90;99.90;;;;;;5027929;28;20117;-71
2022/06/07 02:15:48;;;;;;;36.72;29.65;;;14.10;99.90;;;;;;5022890;28;20034;-71
2022/06/07 02:18:14;;;;;;;41.78;31.30;;;;;;;;;;5026150;28;20375;-71
2022/06/07 02:20:41;;;;;;;45.38;30.95;;;14.10;99.90;;;;;;5028233;28;20068;-71
2022/06/07 02:23:08;;;;;;;41.60;31.58;;;14.10;99.90;;;;;;5027491;28;20080;-71
2022/06/07 02:25:41;;;;;;;39.67;29.63;;;14.10;99.90;;;;;;5026930;28;20037;-71
2022/06/07 02:28:07;;;;;;;37.50;28.80;;;14.00;99.90;;;;;;5027010;28;20087;-71
2022/06/07 02:30:33;;;;;;;36.63;27.20;;;13.90;99.90;;;;;;5026821;28;20044;-71
2022/06/07 02:32:59;;;;;;;38.67;30.88;;;13.70;99.90;;;;;;5027279;28;20034;-71
2022/06/07 02:35:25;;;;;;;35.90;28.90;;;14.00;99.90;;;;;;5027637;28;20025;-71
2022/06/07 02:37:50;;;;;;;39.78;30.20;;;14.10;99.90;;;;;;5027979;28;20032;-71
2022/06/07 02:40:16;;;;;;;38.13;28.92;;;13.90;99.90;;;;;;5025372;28;20038;-71
2022/06/07 02:42:42;;;;;;;34.30;29.67;;;14.10;99.90;;;;;;5027198;28;20029;-71
2022/06/07 02:45:08;;;;;;;37.20;29.50;;;14.00;99.90;;;;;;5026819;28;20041;-71
2022/06/07 02:47:33;;;;;;;37.10;30.65;;;14.00;99.90;;;;;;5026235;28;20036;-71
2022/06/07 02:49:59;;;;;;;38.22;29.30;;;13.90;99.90;;;;;;5023755;28;20104;-71
2022/06/07 02:52:24;;;;;;;36.78;28.27;;;13.90;99.90;;;;;;5023542;28;20109;-71
2022/06/07 02:54:50;;;;;;;33.28;27.92;;;;;;;;;;5027554;28;20097;-71
2022/06/07 02:57:16;;;;;;;37.75;31.60;;;13.90;99.90;;;;;;5029494;28;20041;-71
2022/06/07 02:59:42;;;;;;;38.47;30.58;;;;;;;;;;5028811;28;20113;-71
2022/06/07 03:02:07;;;;;;;34.85;30.00;;;14.00;99.90;;;;;;5023558;28;20109;-70
2022/06/07 03:04:33;;;;;;;38.50;28.92;;;;;;;;;;5028742;28;20088;-71
2022/06/07 03:07:00;;;;;;;36.22;30.15;;;13.90;99.90;;;;;;5028798;28;20025;-71
2022/06/07 03:09:26;;;;;;;37.55;28.95;;;13.80;99.90;;;;;;5026804;28;20076;-71
2022/06/07 03:11:52;;;;;;;37.78;28.00;;;13.80;99.90;;;;;;5029361;28;20033;-71
2022/06/07 03:14:18;;;;;;;35.45;29.00;;;13.80;99.90;;;;;;5028502;28;20095;-71
2022/06/07 03:16:43;;;;;;;37.40;28.83;;;13.70;99.90;;;;;;5030615;28;20470;-71
2022/06/07 03:19:09;;;;;;;37.25;31.70;;;13.90;99.90;;;;;;5030148;28;20042;-71
2022/06/07 03:21:35;;;;;;;37.60;29.90;;;13.90;99.90;;;;;;5030973;28;20154;-71
2022/06/07 03:24:00;;;;;;;38.35;28.70;;;13.90;99.90;;;;;;5022201;28;20038;-71
2022/06/07 03:26:27;;;;;;;35.30;28.58;;;14.00;99.90;;;;;;5024539;28;20021;-71
2022/06/07 03:28:52;;;;;;;33.33;29.10;;;;;;;;;;5030464;28;20026;-71
2022/06/07 03:31:19;;;;;;;37.25;28.85;;;13.70;99.90;;;;;;5028365;28;20035;-71
2022/06/07 03:33:46;;;;;;;39.88;30.30;;;14.00;99.90;;;;;;5030336;28;20032;-71
2022/06/07 03:36:16;;;;;;;31.40;27.15;;;13.50;99.90;;;;;;5029088;28;20039;-71
2022/06/07 03:38:42;;;;;;;36.42;29.73;;;13.70;99.90;;;;;;5030284;28;20474;-71
2022/06/07 03:41:09;;;;;;;34.05;27.73;;;13.70;99.90;;;;;;5026767;28;20051;-71
2022/06/07 03:43:35;;;;;;;33.33;27.45;;;13.70;99.90;;;;;;5030235;28;20025;-71
2022/06/07 03:46:10;;;;;;;34.38;27.70;;;13.50;99.90;;;;;;5027652;28;20192;-71
2022/06/07 03:48:35;;;;;;;32.83;27.55;;;13.70;99.90;;;;;;5024204;28;20029;-71
2022/06/07 03:51:01;;;;;;;28.70;25.55;;;13.60;99.90;;;;;;5030025;28;20814;-71
2022/06/07 03:53:27;;;;;;;33.95;26.17;;;13.90;99.90;;;;;;5029638;28;20029;-71
2022/06/07 03:55:54;;;;;;;32.63;27.77;;;13.60;99.90;;;;;;5028873;28;20037;-71
2022/06/07 03:58:19;;;;;;;32.25;26.77;;;13.70;99.90;;;;;;5022770;28;20056;-71
2022/06/07 04:00:45;;;;;;;36.60;28.58;;;13.70;99.90;;;;;;5025110;28;20451;-71
2022/06/07 04:03:11;;;;;;;32.92;29.35;;;13.40;99.90;;;;;;5020777;28;20018;-71
2022/06/07 04:05:42;;;;;;;35.38;28.85;;;13.60;99.90;;;;;;5028941;28;20064;-71
2022/06/07 04:08:10;;;;;;;36.83;28.20;;;13.60;99.90;;;;;;5027418;28;20025;-71
2022/06/07 04:10:37;;;;;;;40.13;31.25;;;13.70;99.90;;;;;;5029571;28;20021;-71
2022/06/07 04:13:03;;;;;;;36.38;29.27;;;13.80;99.90;;;;;;5029254;28;20475;-71
2022/06/07 04:15:28;;;;;;;36.55;28.90;;;13.80;99.90;;;;;;5029457;28;20040;-71
2022/06/07 04:17:54;;;;;;;36.53;30.27;;;13.80;99.90;;;;;;5029958;28;20037;-71
2022/06/07 04:20:21;;;;;;;34.78;29.80;;;13.80;99.90;;;;;;5025702;28;20046;-71
2022/06/07 04:22:46;;;;;;;35.67;27.92;;;13.90;99.90;;;;;;5029071;28;20044;-72
2022/06/07 04:25:12;;;;;;;34.08;29.52;;;13.60;99.90;;;;;;5023487;28;20104;-71
2022/06/07 04:27:38;;;;;;;33.20;28.23;;;14.10;99.90;;;;;;5029214;28;20409;-71
2022/06/07 04:30:05;;;;;;;39.55;28.83;;;14.20;99.90;;;;;;5028775;28;20029;-71
2022/06/07 04:32:31;;;;;;;32.92;28.15;;;14.20;99.90;;;;;;5027049;28;20112;-71
2022/06/07 04:34:57;;;;;;;36.28;28.45;;;14.10;99.90;;;;;;5029885;28;20411;-71
2022/06/07 04:37:23;;;;;;;34.45;28.90;;;14.00;99.90;;;;;;5027933;28;20157;-71
2022/06/07 04:39:49;;;;;;;33.58;28.33;;;14.10;99.90;;;;;;5029612;28;20037;-71
2022/06/07 04:42:15;;;;;;;34.72;27.83;;;14.30;99.90;;;;;;5021822;28;20079;-71
2022/06/07 04:44:40;;;;;;;34.63;30.52;;;14.30;99.90;;;;;;5019631;28;20038;-71
2022/06/07 04:47:06;;;;;;;37.08;30.63;;;14.40;99.90;;;;;;5028996;28;20412;-71
2022/06/07 04:49:32;;;;;;;33.13;29.60;;;14.30;99.90;;;;;;5020395;28;20075;-71
2022/06/07 04:51:57;;;;;;;36.55;30.95;;;14.50;99.90;;;;;;5029306;28;20057;-71
2022/06/07 04:54:23;;;;;;;37.30;30.17;;;14.50;99.90;;;;;;5027649;28;20033;-71
2022/06/07 04:56:48;;;;;;;34.60;30.83;;;14.50;99.90;;;;;;5028162;28;20088;-71
2022/06/07 04:59:14;;;;;;;35.78;30.25;;;13.90;99.90;;;;;;5027648;28;20045;-71
2022/06/07 05:01:43;;;;;;;34.33;29.17;;;14.40;99.90;;;;;;5021665;28;20071;-71
2022/06/07 05:04:10;;;;;;;31.45;28.10;;;14.30;99.90;;;;;;5027733;28;20478;-71
2022/06/07 05:06:40;;;;;;;33.25;29.00;;;14.50;99.90;;;;;;5027686;28;20030;-71
2022/06/07 05:09:11;;;;;;;31.02;26.92;;;14.60;99.90;;;;;;5022032;28;20050;-71
2022/06/07 05:11:37;;;;;;;27.60;24.35;;;14.50;99.90;;;;;;5029468;28;20544;-71
2022/06/07 05:14:05;;;;;;;36.45;30.02;;;14.60;99.90;;;;;;5025422;28;20040;-71
2022/06/07 05:16:31;;;;;;;33.78;30.15;;;14.40;99.90;;;;;;5015794;28;20032;-71
2022/06/07 05:18:57;;;;;;;35.13;29.13;;;;;;;;;;5028234;28;20554;-71
2022/06/07 05:21:25;;;;;;;36.55;29.45;;;14.60;99.90;;;;;;5021437;28;20043;-71
2022/06/07 05:23:51;;;;;;;33.22;29.60;;;14.50;99.90;;;;;;5016591;28;20022;-71
2022/06/07 05:26:24;;;;;;;30.90;27.63;;;14.40;99.90;;;;;;5014554;28;20137;-71
2022/06/07 05:28:50;;;;;;;29.58;23.95;;;14.40;99.90;;;;;;5011006;28;20116;-71
2022/06/07 05:31:15;;;;;;;39.00;28.35;;;14.50;99.90;;;;;;5008284;28;20113;-71
2022/06/07 05:33:41;;;;;;;32.50;28.05;;;14.90;99.90;;;;;;5014832;28;20026;-71
2022/06/07 05:36:07;;;;;;;32.33;28.80;;;14.40;99.90;;;;;;5013652;28;20402;-71
2022/06/07 05:38:33;;;;;;;32.25;28.35;;;14.40;99.90;;;;;;5028529;28;20052;-72
2022/06/07 05:40:59;;;;;;;34.78;29.63;;;;;;;;;;5020064;28;20030;-69
2022/06/07 05:43:25;;;;;;;36.03;29.63;;;14.60;99.90;;;;;;5015601;28;20093;-69
2022/06/07 05:45:53;;;;;;;32.50;29.20;;;14.50;99.90;;;;;;5012175;28;20105;-70
2022/06/07 05:48:19;;;;;;;33.38;29.30;;;14.50;99.90;;;;;;5007059;28;20058;-69
2022/06/07 05:50:50;;;;;;;34.83;29.33;;;14.50;99.90;;;;;;5024447;28;20483;-69
2022/06/07 05:53:17;;;;;;;31.40;27.73;;;14.70;99.90;;;;;;5026530;28;20470;-69
2022/06/07 05:55:43;;;;;;;31.42;27.23;;;14.70;99.90;;;;;;5027415;28;20120;-69
2022/06/07 05:58:09;;;;;;;30.38;27.15;;;14.70;99.90;;;;;;5027629;28;20025;-69
2022/06/07 06:00:35;;;;;;;31.80;28.05;;;14.70;99.90;;;;;;5028743;28;20113;-69
2022/06/07 06:03:01;;;;;;;30.23;26.38;;;17.30;99.90;;;;;;5028237;28;20021;-69
2022/06/07 06:05:27;;;;;;;27.60;24.70;;;14.70;99.90;;;;;;5028763;28;20033;-69
2022/06/07 06:10:36;;;;;;;30.10;24.88;;;14.70;99.90;;;;;;5028789;28;20091;-69
2022/06/07 06:13:02;;;;;;;27.20;24.35;;;14.80;99.90;;;;;;5028435;28;20112;-69
2022/06/07 06:15:28;;;;;;;31.10;23.42;;;15.10;99.90;;;;;;5028741;28;20033;-69
2022/06/07 06:17:55;;;;;;;27.35;23.20;;;14.90;99.90;;;;;;5028795;28;20422;-69
2022/06/07 06:20:21;;;;;;;25.20;22.42;;;15.10;99.90;;;;;;5027132;28;20171;-69
2022/06/07 06:22:47;;;;;;;33.17;25.30;;;14.90;99.90;;;;;;5028171;28;20017;-70
2022/06/07 06:25:13;;;;;;;28.95;23.63;;;15.10;99.90;;;;;;5028277;28;20039;-69
2022/06/07 06:27:38;;;;;;;25.88;22.45;;;14.80;99.90;;;;;;5029373;28;20026;-70
2022/06/07 06:30:06;;;;;;;26.05;23.23;;;15.20;99.90;;;;;;5030648;28;20041;-70
2022/06/07 06:32:32;;;;;;;27.77;25.02;;;15.20;99.90;;;;;;5031961;28;20032;-69
2022/06/07 06:34:57;;;;;;;24.33;21.20;;;15.10;99.90;;;;;;5032639;28;20033;-69
2022/06/07 06:37:23;;;;;;;26.92;23.88;;;;;;;;;;5031667;28;20068;-69
2022/06/07 06:39:49;;;;;;;33.13;27.13;;;15.30;99.90;;;;;;5032283;28;20037;-69
2022/06/07 06:42:15;;;;;;;29.98;23.50;;;15.40;99.90;;;;;;5031720;28;20478;-70
2022/06/07 06:44:40;;;;;;;28.60;24.13;;;15.10;99.90;;;;;;5029017;28;20034;-69
2022/06/07 06:47:07;;;;;;;28.95;24.25;;;15.70;99.90;;;;;;5030746;28;20111;-69
2022/06/07 06:49:33;;;;;;;30.80;23.98;;;15.70;99.90;;;;;;5028213;28;20025;-69
2022/06/07 06:51:59;;;;;;;25.52;22.83;;;15.70;99.90;;;;;;5031134;28;20080;-70
2022/06/07 06:54:26;;;;;;;23.98;21.38;;;15.70;99.90;;;;;;5032021;28;20479;-70
2022/06/07 06:56:52;;;;;;;24.17;21.67;;;15.60;99.90;;;;;;5030331;28;20022;-70
2022/06/07 06:59:18;;;;;;;29.02;25.92;;;15.80;99.90;;;;;;5029761;28;20033;-69
2022/06/07 07:01:44;;;;;;;27.85;23.52;;;15.80;99.90;;;;;;5030149;28;20087;-70
2022/06/07 07:04:13;;;;;;;28.65;23.90;;;16.00;99.90;;;;;;5026269;28;20056;-70
2022/06/07 07:06:39;;;;;;;23.77;20.27;;;15.90;99.90;;;;;;5028348;28;20029;-70
2022/06/07 07:09:07;;;;;;;27.02;24.17;;;16.00;99.90;;;;;;5031521;28;20761;-69
2022/06/07 07:11:39;;;;;;;31.33;27.55;;;16.00;99.90;;;;;;5030123;28;20078;-69
2022/06/07 07:14:06;;;;;;;30.15;27.00;;;16.00;99.90;;;;;;5031399;28;20030;-69
2022/06/07 07:16:33;;;;;;;30.55;26.80;;;16.10;99.90;;;;;;5031542;28;20136;-69
2022/06/07 07:19:01;;;;;;;28.02;24.73;;;16.20;99.90;;;;;;5019511;28;20042;-69
2022/06/07 07:21:33;;;;;;;30.15;26.95;;;16.50;99.90;;;;;;5029563;28;20365;-69
2022/06/07 07:23:59;;;;;;;31.15;25.20;;;16.40;99.90;;;;;;5044435;28;20449;-69
2022/06/07 07:26:28;;;;;;;27.23;24.40;;;16.40;99.90;;;;;;5031376;28;20025;-69
2022/06/07 07:28:54;;;;;;;30.50;25.33;;;17.00;99.90;;;;;;5031350;28;20447;-69
2022/06/07 07:31:25;;;;;;;30.58;27.27;;;16.40;99.90;;;;;;5020321;28;20030;-70
2022/06/07 07:33:52;;;;;;;28.90;25.85;;;16.50;99.90;;;;;;5011591;28;20026;-69
2022/06/07 07:36:19;;;;;;;28.73;25.85;;;17.00;99.90;;;;;;5019067;28;20065;-69
2022/06/07 07:38:45;;;;;;;26.50;23.63;;;16.80;99.90;;;;;;5017086;28;20048;-70
2022/06/07 07:41:26;;;;;;;28.65;25.63;;;16.80;99.90;;;;;;5010281;28;20120;-69
2022/06/07 07:43:55;;;;;;;27.42;24.58;;;16.80;99.90;;;;;;5010147;28;20117;-68
2022/06/07 07:46:23;;;;;;;28.00;25.00;;;16.80;99.90;;;;;;5018913;28;20025;-69
2022/06/07 07:48:49;;;;;;;25.33;22.73;;;17.80;99.90;;;;;;5014032;28;20076;-70
2022/06/07 07:51:33;;;;;;;26.00;23.48;;;16.70;99.90;;;;;;5010499;28;20061;-69
2022/06/07 07:54:02;;;;;;;27.27;24.42;;;17.30;99.90;;;;;;5010685;28;20034;-69
2022/06/07 07:56:28;;;;;;;26.33;23.65;;;16.80;99.90;;;;;;5011038;28;20575;-69
2022/06/07 07:58:56;;;;;;;26.15;23.65;;;16.90;99.90;;;;;;5018929;28;20037;-69
2022/06/07 08:01:24;;;;;;;26.10;23.60;;;17.00;99.90;;;;;;5017057;28;20462;-69
2022/06/07 08:03:52;;;;;;;25.90;23.27;;;17.10;99.90;;;;;;5029924;28;20049;-69
2022/06/07 08:06:20;;;;;;;24.90;22.48;;;17.30;99.90;;;;;;5030142;28;20379;-69
2022/06/07 08:08:48;;;;;;;29.92;22.83;;;18.50;99.90;;;;;;5030825;28;20025;-69
2022/06/07 08:11:15;;;;;;;22.58;20.17;;;17.60;99.90;;;;;;5029842;28;20036;-69
2022/06/07 08:13:42;;;;;;;21.73;18.60;;;17.70;99.90;;;;;;5030577;28;20029;-69
2022/06/07 08:16:08;;;;;;;19.33;17.42;;;19.00;99.90;;;;;;5026998;28;20033;-70
2022/06/07 08:18:34;;;;;;;18.77;16.83;;;18.00;99.90;;;;;;5029880;28;20025;-69
2022/06/07 08:21:03;;;;;;;19.38;17.48;;;17.90;99.90;;;;;;5029209;28;20071;-69
2022/06/07 08:23:30;;;;;;;19.48;17.63;;;18.70;99.90;;;;;;5030295;28;20026;-70
2022/06/07 08:25:56;;;;;;;19.60;17.50;;;18.10;99.90;;;;;;5028553;28;20109;-69
2022/06/07 08:28:22;;;;;;;19.55;17.65;;;18.00;99.90;;;;;;5018619;28;20022;-69
2022/06/07 08:30:49;;;;;;;22.23;18.48;;;17.80;99.90;;;;;;5030260;28;20075;-69
2022/06/07 08:38:44;;;;;;;16.27;14.65;;;17.80;99.90;;;;;;5010007;28;20104;-70
2022/06/07 08:41:27;;;;;;;19.83;17.63;;;19.70;99.90;;;;;;5020079;28;20037;-69
2022/06/07 08:44:06;;;;;;;21.10;18.17;;;18.10;99.90;;;;;;5028644;28;20108;-69
2022/06/07 08:46:36;;;;;;;19.63;17.73;;;18.40;99.90;;;;;;5029320;28;20022;-69
2022/06/07 08:49:03;;;;;;;20.95;18.70;;;18.10;99.90;;;;;;5029310;28;20028;-70
2022/06/07 08:51:33;;;;;;;20.42;18.30;;;17.90;99.90;;;;;;5029764;28;20368;-69
2022/06/07 08:54:02;;;;;;;19.80;17.80;;;18.90;99.90;;;;;;5029392;28;20477;-69
2022/06/07 08:56:32;;;;;;;21.38;19.40;;;17.80;99.90;;;;;;5029593;28;20038;-68
2022/06/07 08:59:21;;;;;;;22.75;20.35;;;19.00;99.90;;;;;;5029394;28;20402;-68
2022/06/07 09:02:16;;;;;;;22.33;20.08;;;17.70;99.90;;;;;;5010827;28;20509;-68
2022/06/07 09:04:42;;;;;;;23.45;20.95;;;17.80;99.90;;;;;;5028713;28;20045;-68
2022/06/07 09:07:17;;;;;;;25.02;22.50;;;17.80;99.90;;;;;;5028006;28;20029;-68
2022/06/07 09:12:34;;;;;;;22.17;19.95;;;18.50;99.90;;;;;;5029688;28;20490;-67
2022/06/07 09:15:00;;;;;;;23.17;20.98;;;18.00;99.90;;;;;;5028911;28;20112;-68
2022/06/07 09:17:30;;;;;;;23.80;20.95;;;17.90;99.90;;;;;;5028698;28;20105;-67
2022/06/07 09:19:57;;;;;;;25.67;23.05;;;17.90;99.90;;;;;;5029185;28;20132;-68
2022/06/07 09:22:29;;;;;;;24.77;22.38;;;18.00;99.90;;;;;;5029542;28;20124;-68
2022/06/07 09:25:11;;;;;;;26.60;23.77;;;18.80;99.90;;;;;;5029428;28;20033;-67
2022/06/07 09:27:37;;;;;;;26.80;23.65;;;17.70;99.90;;;;;;5029197;28;20124;-68
2022/06/07 09:30:26;;;;;;;25.25;19.83;;;17.60;99.90;;;;;;5028422;28;20097;-68
2022/06/07 09:32:52;;;;;;;23.00;20.73;;;17.60;99.90;;;;;;5029016;28;20045;-68
2022/06/07 09:35:33;;;;;;;24.30;21.48;;;17.60;99.90;;;;;;5018054;28;20773;-67
2022/06/07 09:38:03;;;;;;;28.08;24.45;;;17.60;99.90;;;;;;5007481;28;20030;-68
2022/06/07 09:40:33;;;;;;;28.25;25.02;;;17.60;99.90;;;;;;5007861;28;20038;-68
2022/06/07 09:43:06;;;;;;;27.08;24.25;;;17.60;99.90;;;;;;5013758;28;20026;-68
2022/06/07 09:45:44;;;;;;;25.30;22.70;;;17.50;99.90;;;;;;5039266;28;20022;-68
2022/06/07 09:48:29;;;;;;;25.20;22.05;;;17.60;99.90;;;;;;5027015;28;20071;-68
2022/06/07 09:51:09;;;;;;;23.83;21.42;;;17.50;99.90;;;;;;5028733;28;20072;-68
2022/06/07 09:53:42;;;;;;;25.38;22.88;;;17.20;99.90;;;;;;5027292;28;20033;-68
2022/06/07 09:56:30;;;;;;;25.67;23.17;;;17.30;99.90;;;;;;5027997;28;20116;-69
2022/06/07 09:58:56;;;;;;;25.60;22.98;;;17.60;99.90;;;;;;5028522;28;20046;-67
2022/06/07 10:01:39;;;;;;;24.02;21.63;;;17.70;99.90;;;;;;5028783;28;20025;-68
2022/06/07 10:04:26;;;;;;;24.27;21.88;;;17.70;99.90;;;;;;5030729;28;20042;-67
2022/06/07 10:06:59;;;;;;;22.98;20.65;;;17.80;99.90;;;;;;5032927;28;20064;-68
2022/06/07 10:09:41;;;;;;;23.15;20.17;;;17.70;99.90;;;;;;5032839;28;20490;-68
2022/06/07 10:12:21;;;;;;;22.60;20.45;;;17.90;99.90;;;;;;5032220;28;20068;-68
2022/06/07 10:15:29;;;;;;;22.75;20.48;;;17.90;99.90;;;;;;5032382;28;20033;-68
2022/06/07 10:18:08;;;;;;;20.15;17.70;;;18.20;99.90;;;;;;5032600;28;20474;-67
2022/06/07 10:21:01;;;;;;;24.45;21.85;;;18.50;99.90;;;;;;5031851;28;20366;-67
2022/06/07 10:23:41;;;;;;;25.80;22.83;;;18.60;99.90;;;;;;5024874;28;20029;-68
2022/06/07 10:26:34;;;;;;;26.25;22.40;;;18.90;99.90;;;;;;5030065;28;20493;-68
2022/06/07 10:29:27;;;;;;;22.52;20.25;;;19.10;99.90;;;;;;5027770;28;20029;-68
2022/06/07 10:32:18;;;;;;;24.48;22.08;;;19.10;99.90;;;;;;5012888;28;20022;-68
2022/06/07 10:34:52;;;;;;;25.58;23.00;;;18.90;99.90;;;;;;5012797;28;20084;-68
2022/06/07 10:37:29;;;;;;;26.50;22.63;;;18.80;99.90;;;;;;5012281;28;20411;-68
2022/06/07 10:40:04;;;;;;;25.75;23.02;;;18.60;99.90;;;;;;5028849;28;20044;-68
2022/06/07 10:42:45;;;;;;;24.65;22.17;;;18.30;99.90;;;;;;5031745;28;20048;-68
2022/06/07 10:45:14;;;;;;;24.48;21.63;;;18.30;99.90;;;;;;5031322;28;20076;-68
2022/06/07 10:47:46;;;;;;;23.83;21.45;;;18.10;99.90;;;;;;5020614;28;20215;-68
2022/06/07 10:50:23;;;;;;;24.30;20.92;;;17.90;99.90;;;;;;5031032;28;20065;-68
2022/06/07 10:53:01;;;;;;;23.80;21.63;;;18.00;99.90;;;;;;5032370;28;20108;-68
2022/06/07 10:55:34;;;;;;;28.48;25.75;;;18.20;99.90;;;;;;5025451;28;20080;-68
2022/06/07 10:58:30;;;;;;;29.25;26.30;;;18.70;99.90;;;;;;5011317;28;20478;-68
2022/06/07 11:01:16;;;;;;;25.85;23.35;;;18.50;99.90;;;;;;5011814;28;20025;-67
2022/06/07 11:03:51;;;;;;;25.52;23.00;;;18.60;99.90;;;;;;5031233;28;20125;-67
2022/06/07 11:09:22;;;;;;;27.80;25.05;;;18.50;99.90;;;;;;5031726;28;20039;-68
2022/06/07 11:11:56;;;;;;;24.80;22.40;;;18.50;99.90;;;;;;5031328;28;20025;-67
2022/06/07 11:14:44;;;;;;;25.70;23.02;;;18.50;99.90;;;;;;5028556;28;20495;-67
2022/06/07 11:17:24;;;;;;;26.15;23.65;;;18.60;99.90;;;;;;5030903;28;20090;-67
2022/06/07 11:19:51;;;;;;;23.77;21.48;;;18.70;99.90;;;;;;5030258;28;20058;-67
2022/06/07 11:22:20;;;;;;;22.88;20.33;;;18.80;99.90;;;;;;5030658;28;20025;-67
2022/06/07 11:24:56;;;;;;;23.42;21.13;;;20.00;99.90;;;;;;5030463;28;20022;-67
2022/06/07 11:27:23;;;;;;;24.92;22.55;;;19.00;99.90;;;;;;5030410;28;20017;-67
2022/06/07 11:30:28;;;;;;;24.70;22.38;;;19.20;99.90;;;;;;5027689;28;20025;-67
2022/06/07 11:32:57;;;;;;;24.15;22.02;;;19.30;99.90;;;;;;5030819;28;20491;-67
2022/06/07 11:35:42;;;;;;;24.00;21.60;;;19.50;99.90;;;;;;5030575;28;20029;-66
2022/06/07 11:38:56;;;;;;;19.90;18.05;;;19.80;99.90;;;;;;5030636;28;20029;-67
2022/06/07 11:41:36;;;;;;;17.50;15.82;;;21.10;99.90;;;;;;5030184;28;20033;-66
2022/06/07 11:44:04;;;;;;;21.33;19.33;;;20.60;99.90;;;;;;5030737;28;20485;-67
2022/06/07 11:46:33;;;;;;;19.58;17.75;;;20.30;99.90;;;;;;5031019;28;20029;-67
2022/06/07 11:49:22;;;;;;;23.65;21.10;;;21.00;99.90;;;;;;5030038;28;20342;-66
2022/06/07 11:51:54;;;;;;;24.00;21.80;;;20.10;99.90;;;;;;5031131;28;20087;-66
2022/06/07 11:54:40;;;;;;;22.75;20.05;;;20.20;99.90;;;;;;5027342;28;20101;-66
2022/06/07 11:57:18;;;;;;;20.58;18.55;;;20.40;99.90;;;;;;5023636;28;20096;-66
2022/06/07 11:59:48;;;;;;;19.60;17.88;;;20.70;99.90;;;;;;5027491;28;20514;-66
2022/06/07 12:02:13;;;;;;;21.65;19.73;;;20.60;99.90;;;;;;5029597;28;20018;-66
2022/06/07 12:04:43;;;;;;;21.05;19.15;;;21.90;99.90;;;;;;5029565;28;20487;-67
2022/06/07 12:07:22;;;;;;;20.92;18.38;;;20.90;99.90;;;;;;5029476;28;20013;-66
2022/06/07 12:09:56;;;;;;;19.98;17.75;;;20.90;99.90;;;;;;5029992;28;20021;-66
2022/06/07 12:12:31;;;;;;;21.02;19.00;;;20.90;99.90;;;;;;5029217;28;20029;-67
2022/06/07 12:15:09;;;;;;;20.65;18.58;;;20.80;99.90;;;;;;5029719;28;20033;-66
2022/06/07 12:17:35;;;;;;;19.38;17.55;;;21.40;99.90;;;;;;5030640;28;20018;-67
2022/06/07 12:20:00;;;;;;;18.60;15.82;;;20.90;99.90;;;;;;5029313;28;20079;-67
2022/06/07 12:22:39;;;;;;;18.15;16.17;;;20.70;99.90;;;;;;5030018;28;20033;-66
2022/06/07 12:25:19;;;;;;;18.20;16.33;;;22.00;99.90;;;;;;5028908;28;20021;-67
2022/06/07 12:27:55;;;;;;;16.20;14.43;;;20.80;99.90;;;;;;5029964;28;20025;-67
2022/06/07 12:30:27;;;;;;;17.25;15.75;;;20.70;99.90;;;;;;5029070;28;20029;-67
2022/06/07 12:32:54;;;;;;;18.10;16.38;;;21.20;99.90;;;;;;5028734;28;20018;-67
2022/06/07 12:35:21;;;;;;;18.17;16.38;;;21.00;99.90;;;;;;5028829;28;20095;-67
2022/06/07 12:37:52;;;;;;;20.90;18.83;;;21.00;99.90;;;;;;5030044;28;20462;-67
2022/06/07 12:40:24;;;;;;;17.27;15.60;;;21.70;99.90;;;;;;5029017;28;20037;-67
2022/06/07 12:42:50;;;;;;;17.25;14.95;;;20.90;99.90;;;;;;5028684;28;20030;-67
2022/06/07 12:45:21;;;;;;;16.50;14.93;;;21.40;99.90;;;;;;5024344;28;20025;-66
2022/06/07 12:47:54;;;;;;;17.65;16.00;;;21.00;99.90;;;;;;5015741;28;20026;-66
2022/06/07 12:50:29;;;;;;;15.55;14.05;;;21.70;99.90;;;;;;5017123;28;20029;-67
2022/06/07 12:52:55;;;;;;;17.05;15.43;;;21.00;99.10;;;;;;5029454;28;20103;-67
2022/06/07 12:55:28;;;;;;;16.08;14.38;;;20.80;99.70;;;;;;5029466;28;20506;-67
2022/06/07 12:57:58;;;;;;;16.13;14.70;;;20.90;99.90;;;;;;5029769;28;20075;-67
2022/06/07 13:00:31;;;;;;;15.50;13.50;;;21.20;99.90;;;;;;5029553;28;20032;-67
2022/06/07 13:03:16;;;;;;;13.65;12.32;;;21.30;98.90;;;;;;5029268;28;20018;-67
2022/06/07 13:05:42;;;;;;;15.02;13.43;;;21.50;99.40;;;;;;5029640;28;20502;-67